Eendracht — PDVN — position and weather

sailwx.info

Track history (hours):
 
Tides and Currents Weather Stations Pressure Air Temp Water Temp Dewpoint Dewpoint Depression Visibility Wind Speed Wind Dir Waves Ship Positions

Eendracht (Netherlands)

Last reported at 2016-Aug-25 19:33 UTC. Time now 2016-Aug-25 20:16 UTC.
Position N 51°27' E 003°35'.

Length 59 m; beam 12 m; draft 5 m.

MMSI: 244543000.

Date/timePositionNaut miles runAvg speedWind from/ knotsBaromVisibWave heightAir tempDewpointWater temp
2016-Aug-25 19:33N 51°27' E 003°35'0 0.0
2016-Aug-25 18:33N 51°27' E 003°35'0 0.0
2016-Aug-25 17:32N 51°27' E 003°35'0 0.0
2016-Aug-25 16:32N 51°27' E 003°35'0 0.0
2016-Aug-25 15:29N 51°27' E 003°35'0 0.0
2016-Aug-25 14:32N 51°27' E 003°35'0 0.0
2016-Aug-25 13:32N 51°27' E 003°35'0 0.0
2016-Aug-25 12:32N 51°27' E 003°35'0 0.0
2016-Aug-25 11:32N 51°27' E 003°35'0 0.0
2016-Aug-25 10:32N 51°27' E 003°35'0 0.0
2016-Aug-25 09:32N 51°27' E 003°35'0 0.0
2016-Aug-25 08:32N 51°27' E 003°35'0 0.0
2016-Aug-25 07:32N 51°27' E 003°35'0 0.0
2016-Aug-25 06:32N 51°27' E 003°35'2 1.0
2016-Aug-25 04:32N 51°25' E 003°36'0 0.0
2016-Aug-25 03:32N 51°25' E 003°36'0 0.0
2016-Aug-25 02:32N 51°25' E 003°36'0 0.0
2016-Aug-25 01:32N 51°25' E 003°36'0 0.1
2016-Aug-25 00:32N 51°25' E 003°36'0 0.0
2016-Aug-24 23:32N 51°25' E 003°36'0 0.0
2016-Aug-24 22:32N 51°25' E 003°36'0 0.0
2016-Aug-24 21:32N 51°25' E 003°36'0 0.0
2016-Aug-24 20:32N 51°25' E 003°36'0 0.0
2016-Aug-24 19:32N 51°25' E 003°36'0 0.1
2016-Aug-24 18:32N 51°25' E 003°36'0 0.1
2016-Aug-24 17:32N 51°25' E 003°36'0 0.0
2016-Aug-24 16:32N 51°25' E 003°36'0 0.0
2016-Aug-24 15:33N 51°25' E 003°36'4 3.7
2016-Aug-24 14:33N 51°26' E 003°30'3 3.2
2016-Aug-24 13:34N 51°25' E 003°26'5 4.6
2016-Aug-24 12:33N 51°24' E 003°18'4 3.8
2016-Aug-24 11:34N 51°23' E 003°12'3 3.5
2016-Aug-24 10:34N 51°22' E 003°07'2 2.5
2016-Aug-24 09:34N 51°22' E 003°03'4 3.9
2016-Aug-24 08:33N 51°20' E 002°58'4 4.1
2016-Aug-24 07:33N 51°20' E 002°51'2 2.3
2016-Aug-24 06:33N 51°18' E 002°52'5 2.4
2016-Aug-24 04:32N 51°13' E 002°56'0 0.0
2016-Aug-24 03:31N 51°13' E 002°56'0 0.0
2016-Aug-24 02:31N 51°13' E 002°56'0 0.0
2016-Aug-24 01:31N 51°13' E 002°56'0 0.0
2016-Aug-24 00:31N 51°13' E 002°56'0 0.0
2016-Aug-23 23:31N 51°13' E 002°56'0 0.0
2016-Aug-23 22:31N 51°13' E 002°56'0 0.0
2016-Aug-23 21:31N 51°13' E 002°56'0 0.0
2016-Aug-23 20:31N 51°13' E 002°56'0 0.0
2016-Aug-23 19:31N 51°13' E 002°56'0 0.0
2016-Aug-23 18:31N 51°13' E 002°56'0 0.0
2016-Aug-23 17:31N 51°13' E 002°56'0 0.0
2016-Aug-23 16:31N 51°13' E 002°56'0 0.0
2016-Aug-23 15:31N 51°13' E 002°56'0 0.0
2016-Aug-23 14:31N 51°13' E 002°56'0 0.0
2016-Aug-23 13:31N 51°13' E 002°56'0 0.0
2016-Aug-23 12:31N 51°13' E 002°56'0 0.0
2016-Aug-23 11:31N 51°13' E 002°56'0 0.0
2016-Aug-23 10:31N 51°13' E 002°56'0 0.0
2016-Aug-23 09:31N 51°13' E 002°56'0 0.0
2016-Aug-23 08:31N 51°13' E 002°56'0 0.0
2016-Aug-23 07:31N 51°13' E 002°56'0 0.1
2016-Aug-23 06:33N 51°14' E 002°56'4 3.5
2016-Aug-23 05:33N 51°16' E 002°53'7 7.0
2016-Aug-23 04:33N 51°20' E 002°43'4 4.3
2016-Aug-23 03:32N 51°20' E 002°36'0 0.0
2016-Aug-23 02:32N 51°20' E 002°36'0 0.0
2016-Aug-23 01:32N 51°20' E 002°36'0 0.1
2016-Aug-23 00:32N 51°20' E 002°36'0 0.0
2016-Aug-22 23:32N 51°20' E 002°36'0 0.0
2016-Aug-22 22:32N 51°20' E 002°36'0 0.1
2016-Aug-22 21:31N 51°20' E 002°36'0 0.0
2016-Aug-22 20:31N 51°20' E 002°36'0 0.1
2016-Aug-22 19:31N 51°20' E 002°36'0 0.0
2016-Aug-22 18:31N 51°20' E 002°36'0 0.0
2016-Aug-22 17:31N 51°20' E 002°36'0 0.1
2016-Aug-22 16:33N 51°20' E 002°36'0 0.1
2016-Aug-22 15:33N 51°20' E 002°36'1 0.6
2016-Aug-22 14:32N 51°21' E 002°37'1 0.6
2016-Aug-22 13:32N 51°20' E 002°36'0 0.1
2016-Aug-22 12:32N 51°20' E 002°36'0 0.0
2016-Aug-22 11:32N 51°20' E 002°36'0 0.0
2016-Aug-22 10:32N 51°20' E 002°36'0 0.0
2016-Aug-22 09:29N 51°20' E 002°36'0 0.1
2016-Aug-22 08:32N 51°20' E 002°36'0 0.0
2016-Aug-22 07:32N 51°20' E 002°36'0 0.0
2016-Aug-22 06:32N 51°20' E 002°36'0 0.0
2016-Aug-22 05:32N 51°20' E 002°36'0 0.0
2016-Aug-22 04:32N 51°20' E 002°36'0 0.0
2016-Aug-22 03:32N 51°20' E 002°36'0 0.0
2016-Aug-22 02:32N 51°20' E 002°36'0 0.0
2016-Aug-22 01:31N 51°20' E 002°36'0 0.0
2016-Aug-22 00:31N 51°20' E 002°36'0 0.1
2016-Aug-21 23:34N 51°20' E 002°36'1 1.5
2016-Aug-21 22:33N 51°21' E 002°35'4 3.8
2016-Aug-21 21:33N 51°22' E 002°29'4 4.0
2016-Aug-21 20:34N 51°26' E 002°26'4 3.9
2016-Aug-21 19:34N 51°29' E 002°23'2 2.3
2016-Aug-21 18:33N 51°31' E 002°21'2 2.5
2016-Aug-21 17:34N 51°33' E 002°18'3 3.1
2016-Aug-21 16:34N 51°33' E 002°13'2 2.4
2016-Aug-21 15:33N 51°32' E 002°10'6 5.7
2016-Aug-21 14:33N 51°27' E 002°06'6 5.8
2016-Aug-21 13:34N 51°22' E 002°01'5 4.6
2016-Aug-21 12:33N 51°18' E 001°57'4 4.3
2016-Aug-21 11:33N 51°14' E 001°53'3 2.9
2016-Aug-21 10:33N 51°12' E 001°50'2 2.3
2016-Aug-21 09:33N 51°10' E 001°49'3 3.3
2016-Aug-21 08:34N 51°07' E 001°46'4 4.0
2016-Aug-21 07:34N 51°04' E 001°42'5 5.3
2016-Aug-21 06:34N 50°59' E 001°38'6 6.5
2016-Aug-21 05:33N 50°54' E 001°33'7 7.3
2016-Aug-21 04:32N 50°47' E 001°27'52 4.3
2016-Aug-20 16:29N 50°14' E 000°23'4 4.0
2016-Aug-20 15:32N 50°14' E 000°17'4 4.3
2016-Aug-20 14:33N 50°16' E 000°11'5 4.6
2016-Aug-20 13:33N 50°18' E 000°05'5 4.7
2016-Aug-20 12:33N 50°21' W 000°01'6 5.7
2016-Aug-20 11:33N 50°24' W 000°08'6 6.4
2016-Aug-20 10:33N 50°27' W 000°17'6 5.9
2016-Aug-20 09:33N 50°30' W 000°25'10 9.7
2016-Aug-20 08:33N 50°35' W 000°38'2 1.7
2016-Aug-20 07:34N 50°34' W 000°41'22 7.3
2016-Aug-20 04:32N 50°12' W 000°35'7 7.5
2016-Aug-20 03:33N 50°06' W 000°30'8 8.4
2016-Aug-20 02:33N 49°59' W 000°23'8 7.6
2016-Aug-20 01:33N 49°52' W 000°18'1 0.6
2016-Aug-20 00:33N 49°51' W 000°19'6 6.1
2016-Aug-19 23:33N 49°55' W 000°26'6 5.7
2016-Aug-19 22:33N 49°58' W 000°33'6 6.4
2016-Aug-19 21:33N 50°01' W 000°42'6 6.4
2016-Aug-19 20:33N 50°04' W 000°51'8 7.5
2016-Aug-19 19:32N 50°08' W 001°01'14 4.5
2016-Aug-19 16:22N 50°20' W 001°14'4 4.6
2016-Aug-19 15:33N 50°23' W 001°12'4 3.9
2016-Aug-19 14:33N 50°27' W 001°11'3 2.8
2016-Aug-19 13:33N 50°30' W 001°10'3 3.4
2016-Aug-19 12:33N 50°33' W 001°07'5 4.5
2016-Aug-19 11:33N 50°35' W 001°02'3 3.1
2016-Aug-19 10:33N 50°38' W 000°59'2 1.6
2016-Aug-19 09:33N 50°39' W 000°58'2 2.2
2016-Aug-19 08:33N 50°41' W 000°58'4 4.4
2016-Aug-19 07:34N 50°44' W 001°04'6 5.8
2016-Aug-19 06:33N 50°46' W 001°13'6 6.5
2016-Aug-19 05:33N 50°45' W 001°23'5 5.3
2016-Aug-19 04:33N 50°43' W 001°30'0 0.1
2016-Aug-19 03:31N 50°43' W 001°30'0 0.0
2016-Aug-19 02:31N 50°43' W 001°30'0 0.0
2016-Aug-19 01:31N 50°43' W 001°30'0 0.0
2016-Aug-19 00:31N 50°43' W 001°30'0 0.0
2016-Aug-18 23:31N 50°43' W 001°30'0 0.1
2016-Aug-18 22:31N 50°43' W 001°30'0 0.1
2016-Aug-18 21:31N 50°43' W 001°30'0 0.0
2016-Aug-18 20:31N 50°43' W 001°30'0 0.0
2016-Aug-18 19:31N 50°43' W 001°30'0 0.0
2016-Aug-18 18:31N 50°43' W 001°30'0 0.0
2016-Aug-18 17:31N 50°43' W 001°30'0 0.0
2016-Aug-18 16:31N 50°43' W 001°30'0 0.1
2016-Aug-18 15:31N 50°43' W 001°30'0 0.0
2016-Aug-18 14:31N 50°43' W 001°30'0 0.0
2016-Aug-18 13:28N 50°43' W 001°30'0 0.0
2016-Aug-18 12:31N 50°43' W 001°30'0 0.0
2016-Aug-18 11:31N 50°43' W 001°30'0 0.1
2016-Aug-18 10:31N 50°43' W 001°30'0 0.1
2016-Aug-18 09:31N 50°43' W 001°30'0 0.0
2016-Aug-18 08:31N 50°43' W 001°30'0 0.0
2016-Aug-18 07:33N 50°43' W 001°30'4 3.8
2016-Aug-18 06:33N 50°41' W 001°35'4 4.0
2016-Aug-18 05:33N 50°37' W 001°36'4 3.6
2016-Aug-18 04:34N 50°34' W 001°33'4 4.2
2016-Aug-18 03:33N 50°30' W 001°29'5 4.6
2016-Aug-18 02:30N 50°26' W 001°25'5 3.8
2016-Aug-18 01:15N 50°23' W 001°21'4 4.7
2016-Aug-18 00:28N 50°20' W 001°16'3 3.7
2016-Aug-17 23:33N 50°18' W 001°12'3 2.9
2016-Aug-17 22:33N 50°19' W 001°08'1 1.3
2016-Aug-17 21:34N 50°19' W 001°10'5 5.0
2016-Aug-17 20:33N 50°24' W 001°10'4 3.6
2016-Aug-17 19:33N 50°27' W 001°14'4 4.2
2016-Aug-17 18:33N 50°24' W 001°18'3 2.8
2016-Aug-17 17:33N 50°21' W 001°18'4 4.2
2016-Aug-17 16:33N 50°17' W 001°16'6 5.6
2016-Aug-17 15:33N 50°12' W 001°12'6 6.0
2016-Aug-17 14:33N 50°09' W 001°04'7 6.7
2016-Aug-17 13:34N 50°05' W 000°56'7 6.7
2016-Aug-17 12:33N 50°01' W 000°48'4 4.0
2016-Aug-17 11:34N 49°59' W 000°42'3 3.4
2016-Aug-17 10:33N 49°57' W 000°38'3 3.4
2016-Aug-17 09:33N 49°54' W 000°34'3 3.0
2016-Aug-17 08:33N 49°52' W 000°32'3 3.4
2016-Aug-17 07:33N 49°49' W 000°29'3 3.1
2016-Aug-17 06:33N 49°45' W 000°29'3 3.0
2016-Aug-17 05:33N 49°43' W 000°31'3 2.5
2016-Aug-17 04:34N 49°40' W 000°30'3 2.8
2016-Aug-17 03:34N 49°38' W 000°27'3 3.4
2016-Aug-17 02:33N 49°36' W 000°23'4 3.8
2016-Aug-17 01:33N 49°34' W 000°18'4 3.9
2016-Aug-17 00:33N 49°32' W 000°13'4 3.9
2016-Aug-16 23:33N 49°30' W 000°08'5 4.8
2016-Aug-16 22:33N 49°28' W 000°01'6 6.5
2016-Aug-16 21:34N 49°26' E 000°08'4 3.8
2016-Aug-16 20:32N 49°26' E 000°14'0 0.0
2016-Aug-16 19:32N 49°26' E 000°14'0 0.0
2016-Aug-16 18:32N 49°26' E 000°14'0 0.0
2016-Aug-16 17:32N 49°26' E 000°14'0 0.0
2016-Aug-16 16:32N 49°26' E 000°14'0 0.0
2016-Aug-16 15:32N 49°26' E 000°14'0 0.0
2016-Aug-16 14:32N 49°26' E 000°14'0 0.0
2016-Aug-16 13:32N 49°26' E 000°14'0 0.0
2016-Aug-16 12:32N 49°26' E 000°14'0 0.0
2016-Aug-16 11:32N 49°26' E 000°14'0 0.0
2016-Aug-16 10:32N 49°26' E 000°14'0 0.0
2016-Aug-16 09:32N 49°26' E 000°14'0 0.0
2016-Aug-16 08:32N 49°26' E 000°14'0 0.0
2016-Aug-16 07:32N 49°26' E 000°14'0 0.0
2016-Aug-16 06:32N 49°26' E 000°14'0 0.0
2016-Aug-16 04:32N 49°26' E 000°14'0 0.0
2016-Aug-16 03:32N 49°26' E 000°14'0 0.0
2016-Aug-16 02:32N 49°26' E 000°14'0 0.0
2016-Aug-16 01:32N 49°26' E 000°14'0 0.0
2016-Aug-16 00:32N 49°26' E 000°14'0 0.0
2016-Aug-15 23:32N 49°26' E 000°14'0 0.0
2016-Aug-15 22:31N 49°26' E 000°14'0 0.0
2016-Aug-15 21:31N 49°26' E 000°14'0 0.0
2016-Aug-15 20:28N 49°26' E 000°14'  
Track history (hours):
 
Tides and Currents Weather Stations Pressure Air Temp Water Temp Dewpoint Dewpoint Depression Visibility Wind Speed Wind Dir Waves Ship Positions

Eendracht (Netherlands)

Last reported at 2016-Aug-25 19:33 UTC. Time now 2016-Aug-25 20:16 UTC.
Position N 51°27' E 003°35'.

Length 59 m; beam 12 m; draft 5 m.

MMSI: 244543000.

Date/timePositionNaut miles runAvg speedWind from/ knotsBaromVisibWave heightAir tempDewpointWater temp
2016-Aug-25 19:33N 51°27' E 003°35'0 0.0
2016-Aug-25 18:33N 51°27' E 003°35'0 0.0
2016-Aug-25 17:32N 51°27' E 003°35'0 0.0
2016-Aug-25 16:32N 51°27' E 003°35'0 0.0
2016-Aug-25 15:29N 51°27' E 003°35'0 0.0
2016-Aug-25 14:32N 51°27' E 003°35'0 0.0
2016-Aug-25 13:32N 51°27' E 003°35'0 0.0
2016-Aug-25 12:32N 51°27' E 003°35'0 0.0
2016-Aug-25 11:32N 51°27' E 003°35'0 0.0
2016-Aug-25 10:32N 51°27' E 003°35'0 0.0
2016-Aug-25 09:32N 51°27' E 003°35'0 0.0
2016-Aug-25 08:32N 51°27' E 003°35'0 0.0
2016-Aug-25 07:32N 51°27' E 003°35'0 0.0
2016-Aug-25 06:32N 51°27' E 003°35'2 1.0
2016-Aug-25 04:32N 51°25' E 003°36'0 0.0
2016-Aug-25 03:32N 51°25' E 003°36'0 0.0
2016-Aug-25 02:32N 51°25' E 003°36'0 0.0
2016-Aug-25 01:32N 51°25' E 003°36'0 0.1
2016-Aug-25 00:32N 51°25' E 003°36'0 0.0
2016-Aug-24 23:32N 51°25' E 003°36'0 0.0
2016-Aug-24 22:32N 51°25' E 003°36'0 0.0
2016-Aug-24 21:32N 51°25' E 003°36'0 0.0
2016-Aug-24 20:32N 51°25' E 003°36'0 0.0
2016-Aug-24 19:32N 51°25' E 003°36'0 0.1
2016-Aug-24 18:32N 51°25' E 003°36'0 0.1
2016-Aug-24 17:32N 51°25' E 003°36'0 0.0
2016-Aug-24 16:32N 51°25' E 003°36'0 0.0
2016-Aug-24 15:33N 51°25' E 003°36'4 3.7
2016-Aug-24 14:33N 51°26' E 003°30'3 3.2
2016-Aug-24 13:34N 51°25' E 003°26'5 4.6
2016-Aug-24 12:33N 51°24' E 003°18'4 3.8
2016-Aug-24 11:34N 51°23' E 003°12'3 3.5
2016-Aug-24 10:34N 51°22' E 003°07'2 2.5
2016-Aug-24 09:34N 51°22' E 003°03'4 3.9
2016-Aug-24 08:33N 51°20' E 002°58'4 4.1
2016-Aug-24 07:33N 51°20' E 002°51'2 2.3
2016-Aug-24 06:33N 51°18' E 002°52'5 2.4
2016-Aug-24 04:32N 51°13' E 002°56'0 0.0
2016-Aug-24 03:31N 51°13' E 002°56'0 0.0
2016-Aug-24 02:31N 51°13' E 002°56'0 0.0
2016-Aug-24 01:31N 51°13' E 002°56'0 0.0
2016-Aug-24 00:31N 51°13' E 002°56'0 0.0
2016-Aug-23 23:31N 51°13' E 002°56'0 0.0
2016-Aug-23 22:31N 51°13' E 002°56'0 0.0
2016-Aug-23 21:31N 51°13' E 002°56'0 0.0
2016-Aug-23 20:31N 51°13' E 002°56'0 0.0
2016-Aug-23 19:31N 51°13' E 002°56'0 0.0
2016-Aug-23 18:31N 51°13' E 002°56'0 0.0
2016-Aug-23 17:31N 51°13' E 002°56'0 0.0
2016-Aug-23 16:31N 51°13' E 002°56'0 0.0
2016-Aug-23 15:31N 51°13' E 002°56'0 0.0
2016-Aug-23 14:31N 51°13' E 002°56'0 0.0
2016-Aug-23 13:31N 51°13' E 002°56'0 0.0
2016-Aug-23 12:31N 51°13' E 002°56'0 0.0
2016-Aug-23 11:31N 51°13' E 002°56'0 0.0
2016-Aug-23 10:31N 51°13' E 002°56'0 0.0
2016-Aug-23 09:31N 51°13' E 002°56'0 0.0
2016-Aug-23 08:31N 51°13' E 002°56'0 0.0
2016-Aug-23 07:31N 51°13' E 002°56'0 0.1
2016-Aug-23 06:33N 51°14' E 002°56'4 3.5
2016-Aug-23 05:33N 51°16' E 002°53'7 7.0
2016-Aug-23 04:33N 51°20' E 002°43'4 4.3
2016-Aug-23 03:32N 51°20' E 002°36'0 0.0
2016-Aug-23 02:32N 51°20' E 002°36'0 0.0
2016-Aug-23 01:32N 51°20' E 002°36'0 0.1
2016-Aug-23 00:32N 51°20' E 002°36'0 0.0
2016-Aug-22 23:32N 51°20' E 002°36'0 0.0
2016-Aug-22 22:32N 51°20' E 002°36'0 0.1
2016-Aug-22 21:31N 51°20' E 002°36'0 0.0
2016-Aug-22 20:31N 51°20' E 002°36'0 0.1
2016-Aug-22 19:31N 51°20' E 002°36'0 0.0
2016-Aug-22 18:31N 51°20' E 002°36'0 0.0
2016-Aug-22 17:31N 51°20' E 002°36'0 0.1
2016-Aug-22 16:33N 51°20' E 002°36'0 0.1
2016-Aug-22 15:33N 51°20' E 002°36'1 0.6
2016-Aug-22 14:32N 51°21' E 002°37'1 0.6
2016-Aug-22 13:32N 51°20' E 002°36'0 0.1
2016-Aug-22 12:32N 51°20' E 002°36'0 0.0
2016-Aug-22 11:32N 51°20' E 002°36'0 0.0
2016-Aug-22 10:32N 51°20' E 002°36'0 0.0
2016-Aug-22 09:29N 51°20' E 002°36'0 0.1
2016-Aug-22 08:32N 51°20' E 002°36'0 0.0
2016-Aug-22 07:32N 51°20' E 002°36'0 0.0
2016-Aug-22 06:32N 51°20' E 002°36'0 0.0
2016-Aug-22 05:32N 51°20' E 002°36'0 0.0
2016-Aug-22 04:32N 51°20' E 002°36'0 0.0
2016-Aug-22 03:32N 51°20' E 002°36'0 0.0
2016-Aug-22 02:32N 51°20' E 002°36'0 0.0
2016-Aug-22 01:31N 51°20' E 002°36'0 0.0
2016-Aug-22 00:31N 51°20' E 002°36'0 0.1
2016-Aug-21 23:34N 51°20' E 002°36'1 1.5
2016-Aug-21 22:33N 51°21' E 002°35'4 3.8
2016-Aug-21 21:33N 51°22' E 002°29'4 4.0
2016-Aug-21 20:34N 51°26' E 002°26'4 3.9
2016-Aug-21 19:34N 51°29' E 002°23'2 2.3
2016-Aug-21 18:33N 51°31' E 002°21'2 2.5
2016-Aug-21 17:34N 51°33' E 002°18'3 3.1
2016-Aug-21 16:34N 51°33' E 002°13'2 2.4
2016-Aug-21 15:33N 51°32' E 002°10'6 5.7
2016-Aug-21 14:33N 51°27' E 002°06'6 5.8
2016-Aug-21 13:34N 51°22' E 002°01'5 4.6
2016-Aug-21 12:33N 51°18' E 001°57'4 4.3
2016-Aug-21 11:33N 51°14' E 001°53'3 2.9
2016-Aug-21 10:33N 51°12' E 001°50'2 2.3
2016-Aug-21 09:33N 51°10' E 001°49'3 3.3
2016-Aug-21 08:34N 51°07' E 001°46'4 4.0
2016-Aug-21 07:34N 51°04' E 001°42'5 5.3
2016-Aug-21 06:34N 50°59' E 001°38'6 6.5
2016-Aug-21 05:33N 50°54' E 001°33'7 7.3
2016-Aug-21 04:32N 50°47' E 001°27'52 4.3
2016-Aug-20 16:29N 50°14' E 000°23'4 4.0
2016-Aug-20 15:32N 50°14' E 000°17'4 4.3
2016-Aug-20 14:33N 50°16' E 000°11'5 4.6
2016-Aug-20 13:33N 50°18' E 000°05'5 4.7
2016-Aug-20 12:33N 50°21' W 000°01'6 5.7
2016-Aug-20 11:33N 50°24' W 000°08'6 6.4
2016-Aug-20 10:33N 50°27' W 000°17'6 5.9
2016-Aug-20 09:33N 50°30' W 000°25'10 9.7
2016-Aug-20 08:33N 50°35' W 000°38'2 1.7
2016-Aug-20 07:34N 50°34' W 000°41'22 7.3
2016-Aug-20 04:32N 50°12' W 000°35'7 7.5
2016-Aug-20 03:33N 50°06' W 000°30'8 8.4
2016-Aug-20 02:33N 49°59' W 000°23'8 7.6
2016-Aug-20 01:33N 49°52' W 000°18'1 0.6
2016-Aug-20 00:33N 49°51' W 000°19'6 6.1
2016-Aug-19 23:33N 49°55' W 000°26'6 5.7
2016-Aug-19 22:33N 49°58' W 000°33'6 6.4
2016-Aug-19 21:33N 50°01' W 000°42'6 6.4
2016-Aug-19 20:33N 50°04' W 000°51'8 7.5
2016-Aug-19 19:32N 50°08' W 001°01'14 4.5
2016-Aug-19 16:22N 50°20' W 001°14'4 4.6
2016-Aug-19 15:33N 50°23' W 001°12'4 3.9
2016-Aug-19 14:33N 50°27' W 001°11'3 2.8
2016-Aug-19 13:33N 50°30' W 001°10'3 3.4
2016-Aug-19 12:33N 50°33' W 001°07'5 4.5
2016-Aug-19 11:33N 50°35' W 001°02'3 3.1
2016-Aug-19 10:33N 50°38' W 000°59'2 1.6
2016-Aug-19 09:33N 50°39' W 000°58'2 2.2
2016-Aug-19 08:33N 50°41' W 000°58'4 4.4
2016-Aug-19 07:34N 50°44' W 001°04'6 5.8
2016-Aug-19 06:33N 50°46' W 001°13'6 6.5
2016-Aug-19 05:33N 50°45' W 001°23'5 5.3
2016-Aug-19 04:33N 50°43' W 001°30'0 0.1
2016-Aug-19 03:31N 50°43' W 001°30'0 0.0
2016-Aug-19 02:31N 50°43' W 001°30'0 0.0
2016-Aug-19 01:31N 50°43' W 001°30'0 0.0
2016-Aug-19 00:31N 50°43' W 001°30'0 0.0
2016-Aug-18 23:31N 50°43' W 001°30'0 0.1
2016-Aug-18 22:31N 50°43' W 001°30'0 0.1
2016-Aug-18 21:31N 50°43' W 001°30'0 0.0
2016-Aug-18 20:31N 50°43' W 001°30'0 0.0
2016-Aug-18 19:31N 50°43' W 001°30'0 0.0
2016-Aug-18 18:31N 50°43' W 001°30'0 0.0
2016-Aug-18 17:31N 50°43' W 001°30'0 0.0
2016-Aug-18 16:31N 50°43' W 001°30'0 0.1
2016-Aug-18 15:31N 50°43' W 001°30'0 0.0
2016-Aug-18 14:31N 50°43' W 001°30'0 0.0
2016-Aug-18 13:28N 50°43' W 001°30'0 0.0
2016-Aug-18 12:31N 50°43' W 001°30'0 0.0
2016-Aug-18 11:31N 50°43' W 001°30'0 0.1
2016-Aug-18 10:31N 50°43' W 001°30'0 0.1
2016-Aug-18 09:31N 50°43' W 001°30'0 0.0
2016-Aug-18 08:31N 50°43' W 001°30'0 0.0
2016-Aug-18 07:33N 50°43' W 001°30'4 3.8
2016-Aug-18 06:33N 50°41' W 001°35'4 4.0
2016-Aug-18 05:33N 50°37' W 001°36'4 3.6
2016-Aug-18 04:34N 50°34' W 001°33'4 4.2
2016-Aug-18 03:33N 50°30' W 001°29'5 4.6
2016-Aug-18 02:30N 50°26' W 001°25'5 3.8
2016-Aug-18 01:15N 50°23' W 001°21'4 4.7
2016-Aug-18 00:28N 50°20' W 001°16'3 3.7
2016-Aug-17 23:33N 50°18' W 001°12'3 2.9
2016-Aug-17 22:33N 50°19' W 001°08'1 1.3
2016-Aug-17 21:34N 50°19' W 001°10'5 5.0
2016-Aug-17 20:33N 50°24' W 001°10'4 3.6
2016-Aug-17 19:33N 50°27' W 001°14'4 4.2
2016-Aug-17 18:33N 50°24' W 001°18'3 2.8
2016-Aug-17 17:33N 50°21' W 001°18'4 4.2
2016-Aug-17 16:33N 50°17' W 001°16'6 5.6
2016-Aug-17 15:33N 50°12' W 001°12'6 6.0
2016-Aug-17 14:33N 50°09' W 001°04'7 6.7
2016-Aug-17 13:34N 50°05' W 000°56'7 6.7
2016-Aug-17 12:33N 50°01' W 000°48'4 4.0
2016-Aug-17 11:34N 49°59' W 000°42'3 3.4
2016-Aug-17 10:33N 49°57' W 000°38'3 3.4
2016-Aug-17 09:33N 49°54' W 000°34'3 3.0
2016-Aug-17 08:33N 49°52' W 000°32'3 3.4
2016-Aug-17 07:33N 49°49' W 000°29'3 3.1
2016-Aug-17 06:33N 49°45' W 000°29'3 3.0
2016-Aug-17 05:33N 49°43' W 000°31'3 2.5
2016-Aug-17 04:34N 49°40' W 000°30'3 2.8
2016-Aug-17 03:34N 49°38' W 000°27'3 3.4
2016-Aug-17 02:33N 49°36' W 000°23'4 3.8
2016-Aug-17 01:33N 49°34' W 000°18'4 3.9
2016-Aug-17 00:33N 49°32' W 000°13'4 3.9
2016-Aug-16 23:33N 49°30' W 000°08'5 4.8
2016-Aug-16 22:33N 49°28' W 000°01'6 6.5
2016-Aug-16 21:34N 49°26' E 000°08'4 3.8
2016-Aug-16 20:32N 49°26' E 000°14'0 0.0
2016-Aug-16 19:32N 49°26' E 000°14'0 0.0
2016-Aug-16 18:32N 49°26' E 000°14'0 0.0
2016-Aug-16 17:32N 49°26' E 000°14'0 0.0
2016-Aug-16 16:32N 49°26' E 000°14'0 0.0
2016-Aug-16 15:32N 49°26' E 000°14'0 0.0
2016-Aug-16 14:32N 49°26' E 000°14'0 0.0
2016-Aug-16 13:32N 49°26' E 000°14'0 0.0
2016-Aug-16 12:32N 49°26' E 000°14'0 0.0
2016-Aug-16 11:32N 49°26' E 000°14'0 0.0
2016-Aug-16 10:32N 49°26' E 000°14'0 0.0
2016-Aug-16 09:32N 49°26' E 000°14'0 0.0
2016-Aug-16 08:32N 49°26' E 000°14'0 0.0
2016-Aug-16 07:32N 49°26' E 000°14'0 0.0
2016-Aug-16 06:32N 49°26' E 000°14'0 0.0
2016-Aug-16 04:32N 49°26' E 000°14'0 0.0
2016-Aug-16 03:32N 49°26' E 000°14'0 0.0
2016-Aug-16 02:32N 49°26' E 000°14'0 0.0
2016-Aug-16 01:32N 49°26' E 000°14'0 0.0
2016-Aug-16 00:32N 49°26' E 000°14'0 0.0
2016-Aug-15 23:32N 49°26' E 000°14'0 0.0
2016-Aug-15 22:31N 49°26' E 000°14'0 0.0
2016-Aug-15 21:31N 49°26' E 000°14'0 0.0
2016-Aug-15 20:28N 49°26' E 000°14'  

Dump ship's entire track history